This is the latest recevied weather packets stored in our database for station/object SP9MLI-1. If no packets are shown the sender has not sent any weather packets the latest 10 day(s).
| Time | Temp. | Humidity | Pressure | Rain* | Wind** | Luminosity | Snow |
|---|---|---|---|---|---|---|---|
| 1777923493 | 13.89° C | 85% | 1012.6 hPa | 0 mm | - | - | - |
| 1777922593 | 13.89° C | 85% | 1012.6 hPa | 0 mm | - | - | - |
| 1777921693 | 13.89° C | 85% | 1012.6 hPa | 0 mm | - | - | - |
| 1777920796 | 13.89° C | 85% | 1012.6 hPa | 0 mm | - | - | - |
| 1777919893 | 14.44° C | 83% | 1012.6 hPa | 0 mm | - | - | - |
| 1777918994 | 15° C | 80% | 1012.6 hPa | 0 mm | - | - | - |
| 1777918093 | 15° C | 80% | 1012.6 hPa | 0 mm | - | - | - |
| 1777917193 | 15.56° C | 80% | 1012.6 hPa | 0 mm | - | - | - |
| 1777916293 | 16.11° C | 80% | 1012.6 hPa | 0 mm | - | - | - |
| 1777915393 | 16.67° C | 79% | 1013 hPa | 0 mm | - | - | - |
| 1777914493 | 17.22° C | 78% | 1013 hPa | 0 mm | - | - | - |
| 1777913593 | 17.78° C | 76% | 1013 hPa | 0 mm | - | - | - |
| 1777912693 | 19.44° C | 74% | 1012.6 hPa | 0 mm | - | - | - |
| 1777911792 | 20.56° C | 72% | 1012.6 hPa | 0 mm | - | - | - |
| 1777910893 | 21.11° C | 68% | 1013 hPa | 0 mm | - | - | - |
| 1777910045 | 21.11° C | 68% | 1013 hPa | 0 mm | - | - | - |
| 1777909993 | 21.11° C | 68% | 1013 hPa | 0 mm | - | - | - |
| 1777909092 | 21.67° C | 68% | 1013 hPa | 0 mm | - | - | - |
| 1777908308 | 21.67° C | 68% | 1013 hPa | 0 mm | - | - | - |
| 1777908210 | 21.67° C | 68% | 1013 hPa | 0 mm | - | - | - |
| 1777907292 | 22.22° C | 68% | 1012.6 hPa | 0 mm | - | - | - |
| 1777905492 | 23.89° C | 63% | 1013.3 hPa | 0 mm | - | - | - |
| 1777904592 | 23.89° C | 63% | 1013.3 hPa | 0 mm | - | - | - |
| 1777903694 | 23.89° C | 63% | 1013.3 hPa | 0 mm | - | - | - |
| 1777902792 | 23.89° C | 63% | 1013.3 hPa | 0 mm | - | - | - |
* Rain latest hour (hover to see other rain measurements)
** Current wind speed in m/s (hover to see current wind gust speed)